Estación de Negrete
Ultimos registro cada 15 minutos 71
| N° | Estación | Fecha / Hora | Temperatura | Humedad | Lluvia | Velocidad | Dirección | Radiación | Presion |
| 71 | Negrete | 02-05-2026 17:30 | 13,2 | 71,5 | 0 | 0 | 163 | 15,6 | 1006,2 |
| 70 | Negrete | 02-05-2026 17:15 | 15,8 | 61,4 | 0 | 0 | 163 | 106,9 | 1005,9 |
| 69 | Negrete | 02-05-2026 17:00 | 17,5 | 55,5 | 0 | 0 | 163 | 125,6 | 1005,9 |
| 68 | Negrete | 02-05-2026 16:45 | 17,9 | 51,1 | 0 | 0 | 159 | 203,1 | 1005,7 |
| 67 | Negrete | 02-05-2026 16:30 | 18,1 | 45,6 | 0 | 0 | 171 | 48,1 | 1005,6 |
| 66 | Negrete | 02-05-2026 16:15 | 18,7 | 45 | 0 | 0 | 168 | 161,9 | 1005,7 |
| 65 | Negrete | 02-05-2026 16:00 | 18,7 | 42 | 0 | 0 | 202 | 346,9 | 1005,6 |
| 64 | Negrete | 02-05-2026 15:45 | 18,8 | 44,7 | 0 | 0 | 166 | 369,4 | 1005,7 |
| 63 | Negrete | 02-05-2026 15:30 | 18,6 | 46,4 | 0 | 0 | 154 | 424,4 | 1005,6 |
| 62 | Negrete | 02-05-2026 15:15 | 18,2 | 46,6 | 0 | 0 | 173 | 459,4 | 1005,7 |
| 61 | Negrete | 02-05-2026 15:00 | 18,4 | 47,6 | 0 | 0 | 156 | 493,1 | 1005,9 |
| 60 | Negrete | 02-05-2026 14:45 | 17,4 | 46,5 | 0 | 0 | 150 | 521,9 | 1006,3 |
| 59 | Negrete | 02-05-2026 14:30 | 17,2 | 48,4 | 0 | 0 | 160 | 550,6 | 1006,3 |
| 58 | Negrete | 02-05-2026 14:15 | 17,4 | 47,2 | 0 | 0 | 161 | 571,9 | 1006,2 |
| 57 | Negrete | 02-05-2026 14:00 | 16,9 | 48,2 | 0 | 0,5 | 163 | 589,4 | 1006,5 |
| 56 | Negrete | 02-05-2026 13:45 | 16,5 | 46,1 | 0 | 0,5 | 163 | 604,4 | 1006,9 |
| 55 | Negrete | 02-05-2026 13:30 | 16,3 | 48,2 | 0 | 0 | 170 | 615,6 | 1007 |
| 54 | Negrete | 02-05-2026 13:15 | 15,8 | 48,3 | 0 | 0 | 175 | 621,9 | 1007,2 |
| 53 | Negrete | 02-05-2026 13:00 | 15,3 | 52,8 | 0 | 0 | 142 | 626,9 | 1007,5 |
| 52 | Negrete | 02-05-2026 12:45 | 14,4 | 57,4 | 0 | 0,5 | 164 | 629,4 | 1007,8 |
| 51 | Negrete | 02-05-2026 12:30 | 13,8 | 59 | 0 | 0 | 145 | 625,6 | 1008,3 |
| 50 | Negrete | 02-05-2026 12:15 | 13,8 | 57,5 | 0 | 0 | 142 | 619,4 | 1008,6 |
| 49 | Negrete | 02-05-2026 12:00 | 13,6 | 59,6 | 0 | 0 | 115 | 610,6 | 1008,7 |
| 48 | Negrete | 02-05-2026 11:45 | 13,2 | 61,3 | 0 | 0 | 138 | 596,9 | 1008,9 |
| 47 | Negrete | 02-05-2026 11:30 | 12,2 | 61,6 | 0 | 0,5 | 154 | 581,9 | 1009,2 |
| 46 | Negrete | 02-05-2026 11:15 | 11,6 | 66 | 0 | 0,5 | 161 | 558,1 | 1009,3 |
| 45 | Negrete | 02-05-2026 11:00 | 11,5 | 60,8 | 0 | 0,5 | 145 | 543,1 | 1009,1 |
| 44 | Negrete | 02-05-2026 10:45 | 10,9 | 66,5 | 0 | 0,5 | 152 | 514,4 | 1009,5 |
| 43 | Negrete | 02-05-2026 10:30 | 10,4 | 64,5 | 0 | 0,5 | 150 | 480,6 | 1010,1 |
| 42 | Negrete | 02-05-2026 10:15 | 9,8 | 68,9 | 0 | 0,5 | 140 | 444,4 | 1010 |
| 41 | Negrete | 02-05-2026 10:00 | 9,5 | 71,6 | 0 | 0,5 | 152 | 399,4 | 1010,2 |
| 40 | Negrete | 02-05-2026 09:45 | 8,8 | 72,4 | 0 | 0,5 | 154 | 276,9 | 1010,4 |
| 39 | Negrete | 02-05-2026 09:30 | 7,7 | 79,9 | 0 | 0 | 125 | 36,9 | 1010,5 |
| 38 | Negrete | 02-05-2026 09:15 | 5,4 | 88,6 | 0 | 0 | 108 | 269,4 | 1010,7 |
| 37 | Negrete | 02-05-2026 09:00 | 4,4 | 91,2 | 0 | 0 | 84 | 25,6 | 1010,7 |
| 36 | Negrete | 02-05-2026 08:45 | 3,7 | 94,1 | 0 | 0 | 88 | 23,1 | 1010,8 |
| 35 | Negrete | 02-05-2026 08:30 | 3,2 | 94,7 | 0 | 0 | 58 | 19,4 | 1010,6 |
| 34 | Negrete | 02-05-2026 08:15 | 2,8 | 95 | 0 | 0 | 104 | 15,6 | 1010,5 |
| 33 | Negrete | 02-05-2026 08:00 | 2,4 | 95,6 | 0 | 0 | 86 | 11,9 | 1010,4 |
| 32 | Negrete | 02-05-2026 07:45 | 2,4 | 96 | 0 | 0 | 98 | 6,9 | 1010,4 |
| 31 | Negrete | 02-05-2026 07:30 | 2,3 | 95,8 | 0 | 0 | 88 | 1,9 | 1010,5 |
| 30 | Negrete | 02-05-2026 07:15 | 2,2 | 96 | 0 | 0 | 83 | 0,6 | 1010,5 |
| 29 | Negrete | 02-05-2026 07:00 | 2,4 | 95,4 | 0 | 0 | 46 | 0,6 | 1010,7 |
| 28 | Negrete | 02-05-2026 06:45 | 3 | 94,6 | 0 | 0 | 110 | 0,6 | 1010,8 |
| 27 | Negrete | 02-05-2026 06:30 | 3,8 | 93 | 0 | 0 | 136 | 0,6 | 1010,7 |
| 26 | Negrete | 02-05-2026 06:15 | 3,8 | 94,2 | 0 | 0 | 21 | 0,6 | 1010,7 |
| 25 | Negrete | 02-05-2026 06:00 | 3,9 | 94,2 | 0 | 0 | 69 | 0,6 | 1010,9 |
| 24 | Negrete | 02-05-2026 05:45 | 4,1 | 93,8 | 0 | 0 | 59 | 0,6 | 1011 |
| 23 | Negrete | 02-05-2026 05:30 | 4,5 | 92,5 | 0 | 0 | 55 | 0,6 | 1011 |
| 22 | Negrete | 02-05-2026 05:15 | 5,3 | 89,3 | 0 | 0 | 143 | 0,6 | 1011 |
| 21 | Negrete | 02-05-2026 05:00 | 5,7 | 88,6 | 0 | 0 | 161 | 0,6 | 1011,3 |
| 20 | Negrete | 02-05-2026 04:45 | 5,6 | 89,2 | 0 | 0 | 159 | 0,6 | 1011,6 |
| 19 | Negrete | 02-05-2026 04:30 | 5 | 92,9 | 0 | 0 | 112 | 0,6 | 1011,4 |
| 18 | Negrete | 02-05-2026 04:15 | 3,8 | 96,1 | 0 | 0 | 128 | 0,6 | 1011,7 |
| 17 | Negrete | 02-05-2026 04:00 | 2,7 | 97,4 | 0 | 0 | 76 | 0,6 | 1011,9 |
| 16 | Negrete | 02-05-2026 03:45 | 2,4 | 97 | 0 | 0 | 60 | 0,6 | 1012,4 |
| 15 | Negrete | 02-05-2026 03:30 | 2,6 | 96,9 | 0 | 0 | 65 | 0,6 | 1012,4 |
| 14 | Negrete | 02-05-2026 03:15 | 2,9 | 96,5 | 0 | 0 | 65 | 0,6 | 1012,6 |
| 13 | Negrete | 02-05-2026 03:00 | 3,3 | 96,2 | 0 | 0 | 66 | 0,6 | 1012,9 |
| 12 | Negrete | 02-05-2026 02:45 | 3,4 | 96,5 | 0 | 0 | 42 | 0,6 | 1013,1 |
| 11 | Negrete | 02-05-2026 02:30 | 3,8 | 94,4 | 0 | 0 | 37 | 0,6 | 1013,2 |
| 10 | Negrete | 02-05-2026 02:15 | 5,1 | 92,7 | 0 | 0 | 146 | 0,6 | 1013,4 |
| 9 | Negrete | 02-05-2026 02:00 | 5,2 | 93,9 | 0 | 0 | 178 | 0,6 | 1013,5 |
| 8 | Negrete | 02-05-2026 01:45 | 4,3 | 96,5 | 0 | 0 | 95 | 0,6 | 1013,7 |
| 7 | Negrete | 02-05-2026 01:30 | 3,6 | 97,1 | 0 | 0 | 180 | 0,6 | 1013,9 |
| 6 | Negrete | 02-05-2026 01:15 | 3 | 97,2 | 0 | 0 | 77 | 0,6 | 1014,1 |
| 5 | Negrete | 02-05-2026 01:00 | 2,9 | 96,9 | 0 | 0 | 73 | 0,6 | 1014,4 |
| 4 | Negrete | 02-05-2026 00:45 | 3,5 | 96,7 | 0 | 0 | 98 | 0,6 | 1014,7 |
| 3 | Negrete | 02-05-2026 00:30 | 3,2 | 96,3 | 0 | 0 | 101 | 0,6 | 1014,8 |
| 2 | Negrete | 02-05-2026 00:15 | 4,1 | 97 | 0 | 0 | 111 | 0,6 | 1015 |
| 1 | Negrete | 02-05-2026 00:00 | 3,7 | 96,6 | 0 | 0 | 111 | 0,6 | 1015 |